createdAt,value
2022-11-27T00:01:35.363Z,41.97
2022-11-27T00:04:03.862Z,42.10
2022-11-27T00:06:32.970Z,44.93
2022-11-27T00:09:02.565Z,43.85
2022-11-27T00:11:32.433Z,43.30
2022-11-27T00:14:00.878Z,44.50
2022-11-27T00:16:29.322Z,42.13
2022-11-27T00:18:57.747Z,43.35
2022-11-27T00:21:36.098Z,39.43
2022-11-27T00:26:38.174Z,35.80
2022-11-27T00:29:07.882Z,31.60
2022-11-27T00:31:37.957Z,26.58
2022-11-27T00:34:08.317Z,19.10
2022-11-27T00:36:36.704Z,18.83
2022-11-27T00:39:05.787Z,16.73
2022-11-27T00:44:01.029Z,18.27
2022-11-27T00:46:31.067Z,18.58
2022-11-27T00:49:00.761Z,25.93
2022-11-27T00:51:29.548Z,25.67
2022-11-27T00:53:57.906Z,26.12
2022-11-27T00:56:31.626Z,33.70
2022-11-27T00:58:59.545Z,30.80
2022-11-27T01:01:33.880Z,33.47
2022-11-27T01:04:03.912Z,32.40
2022-11-27T01:06:32.503Z,34.33
2022-11-27T01:09:00.255Z,32.22
2022-11-27T01:11:31.310Z,31.83
2022-11-27T01:14:13.632Z,36.75
2022-11-27T01:16:43.294Z,40.80
2022-11-27T01:19:14.313Z,39.67
2022-11-27T01:21:42.356Z,47.22
2022-11-27T01:24:12.733Z,46.87
2022-11-27T01:26:41.898Z,46.77
2022-11-27T01:29:10.514Z,41.33
2022-11-27T01:31:38.547Z,40.22
2022-11-27T01:34:13.887Z,36.38
2022-11-27T01:36:41.512Z,34.27
2022-11-27T01:39:16.367Z,30.97
2022-11-27T01:41:48.625Z,30.40
2022-11-27T01:44:25.732Z,37.37
2022-11-27T01:47:03.942Z,29.20
2022-11-27T01:49:43.076Z,29.55
2022-11-27T01:52:35.012Z,31.30
2022-11-27T01:55:28.027Z,28.70
2022-11-27T01:58:04.052Z,26.53
2022-11-27T02:00:32.237Z,30.23
2022-11-27T02:03:00.635Z,29.70
2022-11-27T02:05:29.678Z,28.33
2022-11-27T02:08:00.248Z,28.98
2022-11-27T02:11:03.359Z,26.13
2022-11-27T02:13:48.939Z,25.50
2022-11-27T02:16:58.930Z,25.23
2022-11-27T02:19:51.483Z,25.63
2022-11-27T02:22:56.958Z,25.77
2022-11-27T02:25:51.318Z,28.23
2022-11-27T02:28:22.397Z,32.10
2022-11-27T02:31:14.360Z,39.37
2022-11-27T02:33:56.239Z,35.57
2022-11-27T02:36:30.242Z,35.00
2022-11-27T02:39:11.176Z,35.23
2022-11-27T02:41:54.713Z,33.93
2022-11-27T02:44:24.412Z,35.53
2022-11-27T02:49:21.904Z,35.47
2022-11-27T02:51:56.241Z,33.00
2022-11-27T02:54:30.590Z,33.97
2022-11-27T02:57:03.889Z,32.90
2022-11-27T02:59:34.544Z,32.10
2022-11-27T03:02:08.640Z,32.87
2022-11-27T03:04:47.877Z,32.30
2022-11-27T03:07:23.256Z,32.33
2022-11-27T03:09:57.679Z,31.43
2022-11-27T03:12:25.653Z,32.40
2022-11-27T03:14:53.283Z,32.37
2022-11-27T03:17:37.082Z,30.93
2022-11-27T03:20:48.235Z,28.90
2022-11-27T03:23:15.853Z,33.27
2022-11-27T03:25:44.219Z,30.40
2022-11-27T03:28:14.143Z,32.53
2022-11-27T03:30:42.101Z,34.30
2022-11-27T03:33:11.097Z,32.03
2022-11-27T03:35:39.749Z,31.20
2022-11-27T03:38:07.531Z,32.00
2022-11-27T03:41:09.975Z,28.73
2022-11-27T03:43:46.786Z,35.80
2022-11-27T03:46:28.982Z,35.20
2022-11-27T03:49:12.274Z,34.43
2022-11-27T03:52:05.554Z,31.87
2022-11-27T03:54:43.470Z,32.37
2022-11-27T03:57:36.258Z,32.33
2022-11-27T04:00:08.579Z,34.53
2022-11-27T04:02:51.949Z,25.57
2022-11-27T04:05:20.986Z,26.63
2022-11-27T04:10:16.540Z,22.77
2022-11-27T04:12:44.330Z,19.30
2022-11-27T04:15:13.217Z,18.87
2022-11-27T04:17:41.069Z,18.08
2022-11-27T04:20:10.461Z,18.17
2022-11-27T04:22:41.436Z,18.97
2022-11-27T04:25:10.475Z,22.03
2022-11-27T04:27:39.139Z,21.77
2022-11-27T04:30:11.189Z,26.37
2022-11-27T04:32:39.429Z,50.00
2022-11-27T04:35:07.335Z,43.70
2022-11-27T04:37:35.011Z,54.03
2022-11-27T04:40:03.655Z,60.30
2022-11-27T04:42:32.182Z,48.47
2022-11-27T04:44:59.795Z,40.77
2022-11-27T04:47:28.520Z,37.80
2022-11-27T04:49:56.228Z,37.17
2022-11-27T04:52:23.956Z,37.03
2022-11-27T04:54:55.483Z,40.57
2022-11-27T04:57:28.321Z,41.77
2022-11-27T04:59:56.407Z,34.47
2022-11-27T05:02:24.394Z,35.40
2022-11-27T05:05:00.736Z,40.35
2022-11-27T07:10:01.986Z,40.03
2022-11-27T07:12:33.706Z,40.77
2022-11-27T07:15:04.201Z,35.27
2022-11-27T07:17:32.661Z,28.43
2022-11-27T07:20:00.421Z,33.83
2022-11-27T07:22:27.755Z,46.47
2022-11-27T07:24:55.854Z,36.47
2022-11-27T07:27:23.635Z,36.47
2022-11-27T07:29:51.180Z,32.77
2022-11-27T07:32:19.136Z,31.07
2022-11-27T07:34:48.024Z,34.40
2022-11-27T07:37:15.326Z,36.63
2022-11-27T07:40:01.538Z,35.10
2022-11-27T07:42:37.968Z,44.77
2022-11-27T07:45:10.638Z,46.93
2022-11-27T07:47:38.549Z,48.73
2022-11-27T07:50:08.580Z,45.17
2022-11-27T07:52:41.027Z,47.50
2022-11-27T07:55:09.799Z,52.80
2022-11-27T07:57:37.223Z,48.87
2022-11-27T08:00:05.904Z,49.53
2022-11-27T08:02:32.983Z,50.20
2022-11-27T08:05:00.760Z,49.27
2022-11-27T08:07:29.166Z,59.77
2022-11-27T08:10:00.276Z,65.30
2022-11-27T08:12:27.928Z,55.00
2022-11-27T08:14:55.288Z,53.87
2022-11-27T08:17:22.491Z,48.67
2022-11-27T08:19:50.164Z,50.83
2022-11-27T08:22:19.717Z,52.00
2022-11-27T08:24:48.272Z,53.53
2022-11-27T08:27:18.664Z,53.22
2022-11-27T08:29:46.077Z,51.60
2022-11-27T08:32:14.464Z,43.87
2022-11-27T08:34:43.111Z,43.28
2022-11-27T08:37:10.668Z,41.90
2022-11-27T08:39:38.035Z,45.23
2022-11-27T08:42:05.819Z,43.67
2022-11-27T08:44:33.168Z,46.70
2022-11-27T08:47:00.489Z,59.60
2022-11-27T08:49:28.319Z,44.97
2022-11-27T08:51:55.548Z,41.57
2022-11-27T08:54:22.947Z,46.73
2022-11-27T08:56:52.968Z,39.67
2022-11-27T08:59:20.381Z,30.77
2022-11-27T09:01:48.669Z,32.17
2022-11-27T09:04:16.353Z,29.83
2022-11-27T09:06:45.384Z,33.40
2022-11-27T09:09:13.037Z,29.87
2022-11-27T09:11:41.831Z,33.20
2022-11-27T09:14:09.856Z,27.75
2022-11-27T09:16:37.590Z,27.77
2022-11-27T09:19:05.783Z,27.33
2022-11-27T09:21:33.238Z,31.90
2022-11-27T09:24:02.194Z,34.00
2022-11-27T09:26:30.733Z,26.93
2022-11-27T09:28:59.042Z,25.47
2022-11-27T09:31:26.891Z,31.73
2022-11-27T09:33:54.842Z,26.75
2022-11-27T09:36:29.073Z,28.67
2022-11-27T09:38:59.417Z,31.20
2022-11-27T09:41:39.765Z,24.40
2022-11-27T09:44:25.350Z,19.87
2022-11-27T09:46:54.697Z,47.17
2022-11-27T09:52:28.316Z,57.92
2022-11-27T09:55:03.918Z,40.00
2022-11-27T09:57:35.455Z,8.27
2022-11-27T10:00:17.881Z,7.67
2022-11-27T10:02:48.814Z,5.23
2022-11-27T10:05:23.935Z,5.37
2022-11-27T10:08:18.808Z,4.60
2022-11-27T10:11:08.024Z,4.60
2022-11-27T10:13:51.808Z,4.70
2022-11-27T10:16:39.026Z,3.57
2022-11-27T10:19:32.393Z,4.60
2022-11-27T10:22:47.371Z,5.77
2022-11-27T10:25:21.562Z,5.07
2022-11-27T10:28:05.362Z,4.67
2022-11-27T10:30:40.397Z,4.00
2022-11-27T10:33:20.427Z,4.70
2022-11-27T10:35:49.561Z,5.03
2022-11-27T10:38:24.301Z,4.25
2022-11-27T10:41:47.472Z,4.33
2022-11-27T10:44:27.408Z,3.80
2022-11-27T10:47:01.830Z,4.28
2022-11-27T10:49:29.505Z,4.10
2022-11-27T10:51:57.229Z,4.33
2022-11-27T10:54:32.590Z,5.80
2022-11-27T10:57:26.862Z,7.23
2022-11-27T11:00:15.155Z,4.03
2022-11-27T11:02:42.951Z,4.18
2022-11-27T11:08:20.042Z,3.90
2022-11-27T11:10:59.262Z,4.57
2022-11-27T11:13:31.870Z,3.67
2022-11-27T11:16:21.921Z,4.10
2022-11-27T11:18:53.478Z,5.60
2022-11-27T11:21:30.450Z,5.65
2022-11-27T11:24:04.959Z,6.97
2022-11-27T11:26:44.604Z,6.00
2022-11-27T11:29:31.095Z,5.37
2022-11-27T11:32:14.929Z,5.47
2022-11-27T11:34:59.182Z,4.93
2022-11-27T11:37:33.717Z,4.63
2022-11-27T11:40:09.782Z,7.07
2022-11-27T11:42:52.962Z,4.73
2022-11-27T11:45:22.734Z,3.30
2022-11-27T11:50:44.396Z,6.77
2022-11-27T11:53:34.948Z,5.97
2022-11-27T11:56:14.792Z,6.10
2022-11-27T11:58:48.694Z,7.40
2022-11-27T12:01:27.517Z,4.67
2022-11-27T12:04:13.783Z,3.37
2022-11-27T12:07:08.952Z,3.13
2022-11-27T12:09:43.890Z,1.80
2022-11-27T12:12:29.728Z,2.37
2022-11-27T12:15:06.906Z,2.47
2022-11-27T12:17:59.076Z,2.57
2022-11-27T12:21:11.436Z,2.73
2022-11-27T12:23:41.691Z,1.80
2022-11-27T12:26:33.857Z,5.43
2022-11-27T12:29:27.598Z,3.33
2022-11-27T12:32:07.577Z,2.83
2022-11-27T12:34:46.768Z,1.98
2022-11-27T12:37:53.091Z,3.07
2022-11-27T12:40:57.694Z,5.03
2022-11-27T12:43:27.871Z,6.57
2022-11-27T12:46:10.147Z,3.83
2022-11-27T12:48:51.208Z,6.73
2022-11-27T12:51:29.451Z,2.70
2022-11-27T12:54:05.714Z,3.75
2022-11-27T12:56:42.867Z,2.93
2022-11-27T12:59:33.899Z,3.60
2022-11-27T13:02:23.915Z,4.20
2022-11-27T13:04:59.692Z,2.90
2022-11-27T13:08:08.876Z,2.70
2022-11-27T13:10:42.767Z,2.53
2022-11-27T13:13:24.958Z,2.67
2022-11-27T13:16:01.108Z,4.10
2022-11-27T13:18:41.843Z,4.70
2022-11-27T13:21:23.779Z,2.03
2022-11-27T13:23:55.848Z,2.80
2022-11-27T13:26:31.980Z,3.43
2022-11-27T13:29:03.994Z,6.73
2022-11-27T13:31:37.986Z,4.50
2022-11-27T13:34:10.395Z,2.50
2022-11-27T13:36:42.040Z,3.30
2022-11-27T13:39:29.109Z,3.90
2022-11-27T13:42:22.407Z,2.73
2022-11-27T13:44:59.919Z,2.53
2022-11-27T13:47:30.555Z,2.10
2022-11-27T13:50:04.395Z,2.70
2022-11-27T13:52:32.346Z,2.80
2022-11-27T13:55:03.027Z,3.80
2022-11-27T13:57:30.777Z,2.30
2022-11-27T14:00:13.920Z,2.97
2022-11-27T14:02:50.392Z,3.00
2022-11-27T14:05:21.238Z,5.00
2022-11-27T14:10:31.134Z,3.13
2022-11-27T14:13:05.527Z,3.80
2022-11-27T14:15:38.505Z,4.33
2022-11-27T14:18:18.846Z,4.67
2022-11-27T14:21:00.524Z,5.60
2022-11-27T14:23:48.403Z,3.90
2022-11-27T14:26:15.951Z,3.10
2022-11-27T14:28:48.647Z,5.47
2022-11-27T14:31:23.654Z,4.83
2022-11-27T14:36:38.882Z,8.57
2022-11-27T14:39:06.796Z,8.37
2022-11-27T14:41:34.257Z,6.33
2022-11-27T14:44:06.296Z,7.07
2022-11-27T14:46:36.964Z,7.50
2022-11-27T14:49:04.411Z,8.30
2022-11-27T14:51:35.187Z,4.13
2022-11-27T14:54:33.124Z,6.40
2022-11-27T14:57:00.791Z,4.67
2022-11-27T14:59:28.762Z,6.57
2022-11-27T15:02:11.644Z,4.20
2022-11-27T15:04:44.290Z,5.67
2022-11-27T15:07:23.645Z,3.43
2022-11-27T15:09:54.722Z,4.20
2022-11-27T15:12:30.903Z,5.30
2022-11-27T15:15:06.108Z,4.30
2022-11-27T15:17:37.313Z,7.40
2022-11-27T15:20:42.162Z,10.97
2022-11-27T15:23:36.678Z,17.03
2022-11-27T15:26:16.906Z,18.77
2022-11-27T15:28:55.400Z,17.50
2022-11-27T15:31:31.104Z,23.30
2022-11-27T15:34:13.983Z,33.70
2022-11-27T15:36:44.774Z,20.23
2022-11-27T15:39:32.124Z,21.17
2022-11-27T15:42:01.809Z,11.67
2022-11-27T15:44:32.209Z,9.30
2022-11-27T15:47:02.362Z,6.17
2022-11-27T15:49:30.142Z,5.07
2022-11-27T15:51:58.218Z,5.23
2022-11-27T15:54:26.543Z,5.45
2022-11-27T15:56:55.050Z,8.38
2022-11-27T15:59:22.691Z,13.77
2022-11-27T16:01:50.494Z,9.90
2022-11-27T16:04:18.273Z,7.53
2022-11-27T16:06:45.788Z,8.70
2022-11-27T16:09:13.243Z,18.87
2022-11-27T16:11:41.094Z,10.13
2022-11-27T16:14:08.412Z,8.73
2022-11-27T16:16:35.842Z,8.03
2022-11-27T16:19:06.523Z,6.50
2022-11-27T16:21:35.362Z,5.60
2022-11-27T16:24:09.715Z,6.00
2022-11-27T16:26:38.241Z,5.63
2022-11-27T16:29:07.755Z,5.80
2022-11-27T16:34:06.009Z,51.00
2022-11-27T16:36:33.984Z,54.10
2022-11-27T16:39:02.037Z,52.43
2022-11-27T16:41:29.824Z,50.10
2022-11-27T16:43:57.569Z,52.80
2022-11-27T16:46:28.045Z,47.27
2022-11-27T16:48:57.645Z,42.53
2022-11-27T16:53:56.142Z,43.22
2022-11-27T16:56:26.234Z,41.03
2022-11-27T16:58:58.081Z,62.33
2022-11-27T17:01:36.284Z,94.90
2022-11-27T17:04:07.278Z,111.90
2022-11-27T17:06:37.098Z,69.37
2022-11-27T17:09:06.958Z,49.53
2022-11-27T17:11:37.191Z,42.17
2022-11-27T17:14:07.687Z,37.50
2022-11-27T17:16:37.886Z,32.57
2022-11-27T17:19:05.421Z,32.20
2022-11-27T17:21:34.993Z,38.07
2022-11-27T17:24:14.536Z,41.40
2022-11-27T17:26:44.760Z,49.93
2022-11-27T17:29:14.384Z,51.03
2022-11-27T17:34:12.038Z,57.00
2022-11-27T17:36:42.413Z,57.40
2022-11-27T17:39:12.369Z,49.30
2022-11-27T17:41:41.127Z,47.30
2022-11-27T17:44:08.691Z,43.17
2022-11-27T17:46:37.150Z,62.93
2022-11-27T17:49:07.618Z,113.43
2022-11-27T17:51:36.853Z,153.10
2022-11-27T17:54:06.133Z,146.00
2022-11-27T17:56:35.027Z,107.50
2022-11-27T17:59:03.349Z,78.32
2022-11-27T18:01:31.694Z,74.82
2022-11-27T18:04:01.478Z,72.47
2022-11-27T18:06:30.025Z,98.07
2022-11-27T18:08:58.336Z,119.63
2022-11-27T18:11:28.720Z,114.97
2022-11-27T18:13:57.301Z,105.63
2022-11-27T18:16:30.979Z,96.87
2022-11-27T18:19:00.482Z,98.00
2022-11-27T18:21:31.366Z,80.07
2022-11-27T18:24:22.457Z,74.15
2022-11-27T18:29:38.379Z,54.03
2022-11-27T18:32:06.840Z,46.47
2022-11-27T18:34:36.977Z,50.05
2022-11-27T18:37:07.220Z,50.40
2022-11-27T18:39:36.083Z,54.22
2022-11-27T18:42:05.227Z,70.35
2022-11-27T18:44:38.371Z,87.20
2022-11-27T18:47:10.494Z,84.47
2022-11-27T18:49:39.024Z,87.10
2022-11-27T18:52:07.586Z,149.70
2022-11-27T18:54:37.429Z,172.05
2022-11-27T18:57:07.439Z,147.63
2022-11-27T18:59:35.135Z,127.80
2022-11-27T19:02:04.309Z,133.97
2022-11-27T19:04:34.550Z,129.53
2022-11-27T19:07:02.086Z,127.40
2022-11-27T19:09:29.678Z,153.77
2022-11-27T19:11:57.389Z,141.30
2022-11-27T19:14:24.846Z,135.23
2022-11-27T19:16:53.123Z,135.57
2022-11-27T19:22:10.702Z,111.43
2022-11-27T19:24:40.623Z,93.10
2022-11-27T19:27:09.881Z,69.80
2022-11-27T19:29:37.739Z,35.60
2022-11-27T19:32:06.337Z,30.52
2022-11-27T19:34:35.241Z,33.73
2022-11-27T19:37:02.868Z,35.55
2022-11-27T19:39:30.941Z,37.77
2022-11-27T19:41:58.859Z,44.67
2022-11-27T19:44:26.591Z,48.13
2022-11-27T19:46:55.124Z,57.43
2022-11-27T19:49:24.344Z,56.50
2022-11-27T19:51:55.969Z,49.30
2022-11-27T19:54:24.055Z,53.38
2022-11-27T19:56:51.664Z,63.20
2022-11-27T19:59:24.394Z,56.27
2022-11-27T20:01:53.484Z,59.23
2022-11-27T20:04:25.477Z,56.27
2022-11-27T20:06:53.441Z,62.33
2022-11-27T20:09:21.284Z,56.85
2022-11-27T20:11:48.720Z,42.73
2022-11-27T20:14:16.286Z,27.57
2022-11-27T20:16:44.120Z,23.57
2022-11-27T20:19:11.631Z,21.53
2022-11-27T20:21:40.356Z,20.27
2022-11-27T20:24:08.890Z,33.15
2022-11-27T20:26:41.200Z,19.13
2022-11-27T20:29:11.793Z,17.90
2022-11-27T20:31:41.344Z,13.55
2022-11-27T20:34:16.807Z,19.27
2022-11-27T20:36:44.278Z,22.20
2022-11-27T20:39:19.234Z,15.80
2022-11-27T20:41:49.834Z,10.53
2022-11-27T20:46:46.618Z,10.67
2022-11-27T20:49:14.645Z,12.07
2022-11-27T20:51:42.727Z,13.00
2022-11-27T20:54:11.937Z,8.00
2022-11-27T20:56:41.085Z,5.62
2022-11-27T21:01:37.182Z,11.00
2022-11-27T21:04:11.165Z,9.10
2022-11-27T21:06:43.774Z,8.60
2022-11-27T21:09:14.128Z,4.70
2022-11-27T21:11:43.182Z,5.97
2022-11-27T21:14:13.057Z,4.30
2022-11-27T21:16:43.756Z,8.43
2022-11-27T21:19:15.732Z,14.17
2022-11-27T21:21:43.287Z,14.60
2022-11-27T21:24:11.385Z,17.10
2022-11-27T21:26:40.461Z,15.37
2022-11-27T21:29:08.532Z,11.25
2022-11-27T21:31:37.890Z,13.73
2022-11-27T21:34:12.153Z,21.60
2022-11-27T21:36:39.739Z,16.23
2022-11-27T21:39:11.573Z,19.65
2022-11-27T21:41:39.130Z,15.70
2022-11-27T21:44:06.606Z,11.40
2022-11-27T21:46:35.145Z,10.07
2022-11-27T21:49:04.385Z,10.83
2022-11-27T21:51:31.897Z,12.73
2022-11-27T21:53:59.995Z,15.87
2022-11-27T21:56:29.823Z,16.93
2022-11-27T21:58:58.915Z,18.10
2022-11-27T22:01:26.990Z,25.70
2022-11-27T22:03:55.139Z,20.37
2022-11-27T22:06:24.980Z,19.20
2022-11-27T22:08:54.705Z,15.23
2022-11-27T22:11:30.466Z,15.50
2022-11-27T22:14:00.680Z,18.00
2022-11-27T22:16:30.565Z,16.57
2022-11-27T22:19:00.248Z,23.17
2022-11-27T22:21:30.506Z,32.40
2022-11-27T22:24:01.370Z,41.90
2022-11-27T22:26:29.686Z,38.63
2022-11-27T22:28:58.792Z,23.30
2022-11-27T22:31:33.243Z,22.23
2022-11-27T22:34:01.152Z,30.03
2022-11-27T22:36:30.528Z,32.10
2022-11-27T22:41:29.481Z,28.38
2022-11-27T22:44:00.451Z,36.33
2022-11-27T22:46:32.885Z,36.63
2022-11-27T22:49:02.463Z,23.77
2022-11-27T22:51:32.223Z,18.60
2022-11-27T22:54:01.510Z,26.58
2022-11-27T22:56:28.748Z,24.52
2022-11-27T22:59:17.553Z,18.23
2022-11-27T23:01:45.765Z,16.00
2022-11-27T23:04:13.567Z,14.17
2022-11-27T23:06:40.817Z,16.80
2022-11-27T23:09:08.221Z,20.33
2022-11-27T23:11:36.735Z,19.35
2022-11-27T23:14:05.225Z,17.48
2022-11-27T23:16:33.564Z,15.67
2022-11-27T23:19:01.327Z,15.73
2022-11-27T23:21:28.797Z,15.90
2022-11-27T23:23:56.742Z,17.50
2022-11-27T23:26:24.869Z,19.40
2022-11-27T23:28:53.854Z,19.40
2022-11-27T23:31:31.117Z,34.50
2022-11-27T23:34:02.130Z,35.03
2022-11-27T23:36:31.187Z,37.70
2022-11-27T23:39:04.278Z,40.40
2022-11-27T23:41:31.843Z,39.80
2022-11-27T23:43:59.650Z,38.43
2022-11-27T23:46:28.934Z,44.03
2022-11-27T23:48:57.868Z,43.87
2022-11-27T23:51:31.126Z,45.70
2022-11-27T23:54:00.096Z,33.57
2022-11-27T23:56:30.870Z,25.17
2022-11-27T23:58:59.426Z,32.03
